Terminal Aerodrome Forecast
Issued by NWS

Home | Current Version | Previous Version | Graphics & Text | Print | Product List | Glossary On
Versions: 1 2 3 4 5 6 7 8 9 10 11 12 13 14 15 16 17 18 19 20 21 22 23 24 25 26 27 28 29 30 31 32 33 34 35 36 37 38
000
FTUS43 KGRB 292320
TAFRHI
TAF
KRHI 292320Z 3000/3024 27011G17KT P6SM SCT035 BKN060
     FM300200 28006KT P6SM SCT040
     FM300700 VRB03KT P6SM SCT150
      TEMPO 3007/3011 2SM BR
     FM301500 29007KT P6SM FEW250=

USA.gov is the U.S. government's official web portal to all federal, state and local government web resources and services.